createdAt,value
2023-03-05T00:00:49.846Z,0.10
2023-03-05T00:02:49.853Z,0.10
2023-03-05T00:04:49.756Z,0.10
2023-03-05T00:06:49.759Z,0.10
2023-03-05T00:08:49.857Z,0.10
2023-03-05T00:10:49.764Z,0.10
2023-03-05T00:12:49.749Z,0.10
2023-03-05T00:14:49.771Z,0.10
2023-03-05T00:16:49.876Z,0.00
2023-03-05T00:18:49.928Z,0.00
2023-03-05T00:20:49.756Z,0.00
2023-03-05T00:22:49.751Z,0.00
2023-03-05T00:24:49.765Z,0.00
2023-03-05T00:26:49.793Z,0.00
2023-03-05T00:28:49.782Z,0.00
2023-03-05T00:30:49.799Z,0.00
2023-03-05T00:32:49.811Z,0.00
2023-03-05T00:34:49.780Z,0.00
2023-03-05T00:36:49.746Z,0.00
2023-03-05T00:38:49.763Z,-0.20
2023-03-05T00:40:49.764Z,-0.20
2023-03-05T00:42:49.761Z,-0.20
2023-03-05T00:44:49.776Z,-0.20
2023-03-05T00:47:19.853Z,-0.20
2023-03-05T00:49:19.746Z,-0.20
2023-03-05T00:51:19.780Z,-0.20
2023-03-05T00:53:19.775Z,-0.20
2023-03-05T00:55:19.778Z,-0.20
2023-03-05T00:57:19.760Z,-0.20
2023-03-05T00:59:19.773Z,-0.20
2023-03-05T01:01:19.792Z,-0.20
2023-03-05T01:03:19.784Z,-0.20
2023-03-05T01:05:19.808Z,-0.20
2023-03-05T01:07:19.782Z,-0.20
2023-03-05T01:09:19.985Z,-0.30
2023-03-05T01:11:19.792Z,-0.30
2023-03-05T01:13:19.747Z,-0.30
2023-03-05T01:15:19.754Z,-0.30
2023-03-05T01:17:19.787Z,-0.30
2023-03-05T01:19:19.819Z,-0.30
2023-03-05T01:21:19.766Z,-0.30
2023-03-05T01:23:19.763Z,-0.30
2023-03-05T01:25:19.769Z,-0.30
2023-03-05T01:27:19.767Z,-0.30
2023-03-05T01:29:19.758Z,-0.30
2023-03-05T01:31:19.780Z,-0.30
2023-03-05T01:33:19.779Z,-0.30
2023-03-05T01:35:19.772Z,-0.30
2023-03-05T01:37:19.750Z,-0.30
2023-03-05T01:39:19.855Z,-0.30
2023-03-05T01:41:19.745Z,-0.30
2023-03-05T01:43:19.802Z,-0.20
2023-03-05T01:45:19.776Z,-0.20
2023-03-05T01:47:19.771Z,-0.20
2023-03-05T01:49:19.746Z,-0.20
2023-03-05T01:51:19.772Z,-0.20
2023-03-05T01:53:19.793Z,-0.20
2023-03-05T01:55:19.761Z,-0.20
2023-03-05T01:57:19.782Z,-0.20
2023-03-05T01:59:19.784Z,-0.20
2023-03-05T02:01:19.825Z,-0.20
2023-03-05T02:03:19.865Z,-0.20
2023-03-05T02:05:19.753Z,-0.20
2023-03-05T02:07:19.774Z,-0.30
2023-03-05T02:09:19.879Z,-0.30
2023-03-05T02:11:19.772Z,-0.30
2023-03-05T02:13:19.787Z,-0.30
2023-03-05T02:15:19.780Z,-0.30
2023-03-05T02:17:19.767Z,-0.30
2023-03-05T02:19:19.780Z,-0.30
2023-03-05T02:21:19.864Z,-0.30
2023-03-05T02:23:19.809Z,-0.30
2023-03-05T02:25:19.896Z,-0.30
2023-03-05T02:27:19.792Z,-0.30
2023-03-05T02:29:19.787Z,-0.30
2023-03-05T02:31:19.891Z,-0.30
2023-03-05T02:33:19.807Z,-0.30
2023-03-05T02:35:49.854Z,-0.30
2023-03-05T02:37:49.882Z,-0.30
2023-03-05T02:39:49.813Z,-0.30
2023-03-05T02:41:49.790Z,-0.30
2023-03-05T02:43:49.782Z,-0.30
2023-03-05T02:45:49.929Z,-0.30
2023-03-05T02:47:49.824Z,-0.30
2023-03-05T02:49:49.921Z,-0.30
2023-03-05T02:51:49.806Z,-0.30
2023-03-05T02:53:49.807Z,-0.30
2023-03-05T02:55:49.788Z,-0.30
2023-03-05T02:57:49.799Z,-0.30
2023-03-05T02:59:49.857Z,-0.30
2023-03-05T03:01:49.821Z,-0.30
2023-03-05T03:03:49.832Z,-0.30
2023-03-05T03:05:49.800Z,-0.30
2023-03-05T03:07:49.779Z,-0.30
2023-03-05T03:09:49.804Z,-0.30
2023-03-05T03:11:49.820Z,-0.30
2023-03-05T03:13:49.868Z,-0.30
2023-03-05T03:15:49.819Z,-0.30
2023-03-05T03:17:49.880Z,-0.30
2023-03-05T03:19:49.799Z,-0.30
2023-03-05T03:21:49.811Z,-0.20
2023-03-05T03:23:49.914Z,-0.30
2023-03-05T03:25:49.800Z,-0.30
2023-03-05T03:27:49.828Z,-0.20
2023-03-05T03:29:49.821Z,-0.30
2023-03-05T03:31:49.898Z,-0.30
2023-03-05T03:33:49.803Z,-0.30
2023-03-05T03:35:50.005Z,-0.30
2023-03-05T03:37:49.838Z,-0.30
2023-03-05T03:39:49.826Z,-0.30
2023-03-05T03:41:49.820Z,-0.30
2023-03-05T03:43:49.824Z,-0.30
2023-03-05T03:45:49.828Z,-0.30
2023-03-05T03:47:49.811Z,-0.30
2023-03-05T03:49:49.815Z,-0.30
2023-03-05T03:51:49.839Z,-0.30
2023-03-05T03:53:49.820Z,-0.30
2023-03-05T03:55:49.829Z,-0.30
2023-03-05T03:57:49.913Z,-0.40
2023-03-05T03:59:49.811Z,-0.40
2023-03-05T04:01:49.831Z,-0.40
2023-03-05T04:03:49.924Z,-0.40
2023-03-05T04:05:49.929Z,-0.40
2023-03-05T04:07:49.843Z,-0.40
2023-03-05T04:09:49.827Z,-0.40
2023-03-05T04:11:49.837Z,-0.40
2023-03-05T04:13:49.884Z,-0.40
2023-03-05T04:15:49.854Z,-0.40
2023-03-05T04:17:49.857Z,-0.40
2023-03-05T04:19:49.836Z,-0.40
2023-03-05T04:21:49.842Z,-0.40
2023-03-05T04:23:49.844Z,-0.40
2023-03-05T04:26:19.870Z,-0.30
2023-03-05T04:28:19.854Z,-0.30
2023-03-05T04:30:19.864Z,-0.30
2023-03-05T04:32:19.882Z,-0.20
2023-03-05T04:34:19.845Z,-0.20
2023-03-05T04:36:19.829Z,-0.20
2023-03-05T04:38:19.910Z,-0.20
2023-03-05T04:40:19.842Z,-0.20
2023-03-05T04:42:19.827Z,-0.20
2023-03-05T04:44:19.906Z,-0.20
2023-03-05T04:46:19.867Z,0.00
2023-03-05T04:48:19.926Z,0.00
2023-03-05T04:50:19.946Z,0.10
2023-03-05T04:52:20.001Z,0.10
2023-03-05T04:54:20.007Z,0.10
2023-03-05T04:56:19.940Z,0.10
2023-03-05T04:58:19.882Z,0.10
2023-03-05T05:00:20.053Z,0.10
2023-03-05T05:02:19.941Z,0.10
2023-03-05T05:06:19.915Z,0.20
2023-03-05T05:08:02.433Z,0.20
2023-03-05T05:10:32.509Z,0.20
2023-03-05T05:12:32.401Z,0.20
2023-03-05T05:14:32.414Z,0.20
2023-03-05T05:16:32.396Z,0.20
2023-03-05T05:18:32.416Z,0.30
2023-03-05T05:20:32.409Z,0.30
2023-03-05T05:22:32.411Z,0.30
2023-03-05T05:24:32.400Z,0.30
2023-03-05T05:26:32.374Z,0.30
2023-03-05T05:28:32.408Z,0.30
2023-03-05T05:30:32.406Z,0.30
2023-03-05T05:32:32.470Z,0.30
2023-03-05T05:34:32.461Z,0.30
2023-03-05T05:36:32.399Z,0.30
2023-03-05T05:38:32.480Z,0.30
2023-03-05T05:40:32.444Z,0.30
2023-03-05T05:42:32.541Z,0.30
2023-03-05T05:44:32.406Z,0.30
2023-03-05T05:46:32.437Z,0.30
2023-03-05T05:48:32.446Z,0.30
2023-03-05T05:50:32.465Z,0.30
2023-03-05T05:52:32.466Z,0.20
2023-03-05T05:54:32.427Z,0.30
2023-03-05T05:56:32.435Z,0.30
2023-03-05T05:58:32.420Z,0.30
2023-03-05T06:00:32.549Z,0.30
2023-03-05T06:02:32.470Z,0.30
2023-03-05T06:04:32.476Z,0.30
2023-03-05T06:06:32.428Z,0.30
2023-03-05T06:08:32.406Z,0.30
2023-03-05T06:10:32.435Z,0.30
2023-03-05T06:12:32.436Z,0.30
2023-03-05T06:14:32.438Z,0.30
2023-03-05T06:16:32.452Z,0.30
2023-03-05T06:18:32.476Z,0.30
2023-03-05T06:20:32.433Z,0.30
2023-03-05T06:22:32.454Z,0.30
2023-03-05T06:24:32.466Z,0.20
2023-03-05T06:26:32.448Z,0.30
2023-03-05T06:28:32.465Z,0.30
2023-03-05T06:30:32.524Z,0.30
2023-03-05T06:32:32.445Z,0.30
2023-03-05T06:34:32.427Z,0.30
2023-03-05T06:36:32.430Z,0.30
2023-03-05T06:38:32.444Z,0.30
2023-03-05T06:40:32.527Z,0.30
2023-03-05T06:42:32.481Z,0.30
2023-03-05T06:44:32.477Z,0.20
2023-03-05T06:46:32.553Z,0.20
2023-03-05T06:48:32.520Z,0.20
2023-03-05T06:50:32.503Z,0.30
2023-03-05T06:52:32.640Z,0.30
2023-03-05T06:54:32.536Z,0.30
2023-03-05T06:57:02.566Z,0.30
2023-03-05T06:59:02.464Z,0.30
2023-03-05T07:01:02.472Z,0.30
2023-03-05T07:03:02.530Z,0.30
2023-03-05T07:05:02.494Z,0.30
2023-03-05T07:07:02.436Z,0.30
2023-03-05T07:09:02.585Z,0.30
2023-03-05T07:11:02.543Z,0.30
2023-03-05T07:13:02.543Z,0.30
2023-03-05T07:15:02.490Z,0.30
2023-03-05T07:17:02.474Z,0.40
2023-03-05T07:19:02.575Z,0.40
2023-03-05T07:21:02.536Z,0.40
2023-03-05T07:23:02.548Z,0.40
2023-03-05T07:25:02.544Z,0.40
2023-03-05T07:27:02.558Z,0.40
2023-03-05T07:29:02.514Z,0.40
2023-03-05T07:31:02.580Z,0.40
2023-03-05T07:33:02.505Z,0.40
2023-03-05T07:35:02.583Z,0.40
2023-03-05T07:37:02.573Z,0.40
2023-03-05T07:39:02.735Z,0.40
2023-03-05T07:41:02.685Z,0.40
2023-03-05T07:43:02.595Z,0.40
2023-03-05T07:45:02.651Z,0.50
2023-03-05T07:47:02.524Z,0.40
2023-03-05T07:49:02.512Z,0.50
2023-03-05T07:51:02.583Z,0.50
2023-03-05T07:53:02.552Z,0.50
2023-03-05T07:55:02.493Z,0.60
2023-03-05T07:57:02.575Z,0.60
2023-03-05T07:59:02.610Z,0.60
2023-03-05T08:01:02.543Z,0.70
2023-03-05T08:03:02.564Z,0.70
2023-03-05T08:05:02.547Z,0.70
2023-03-05T08:07:02.497Z,0.70
2023-03-05T08:09:03.654Z,0.70
2023-03-05T08:11:03.379Z,0.70
2023-03-05T08:13:02.618Z,0.80
2023-03-05T08:15:02.492Z,0.80
2023-03-05T08:17:02.528Z,0.90
2023-03-05T08:19:02.556Z,0.90
2023-03-05T08:21:02.584Z,0.90
2023-03-05T08:23:03.596Z,0.90
2023-03-05T08:25:02.949Z,0.90
2023-03-05T08:27:02.533Z,1.00
2023-03-05T08:29:02.575Z,1.00
2023-03-05T08:31:02.599Z,1.00
2023-03-05T08:33:02.525Z,1.00
2023-03-05T08:35:02.514Z,1.10
2023-03-05T08:37:02.602Z,1.00
2023-03-05T08:39:02.588Z,1.00
2023-03-05T08:41:02.665Z,1.10
2023-03-05T08:43:32.616Z,1.10
2023-03-05T08:45:32.505Z,1.10
2023-03-05T08:47:32.589Z,1.20
2023-03-05T08:49:32.494Z,1.20
2023-03-05T08:51:32.506Z,1.10
2023-03-05T08:53:32.611Z,1.10
2023-03-05T08:55:32.531Z,1.20
2023-03-05T08:57:32.560Z,1.20
2023-03-05T08:59:32.537Z,1.20
2023-03-05T09:01:32.605Z,1.20
2023-03-05T09:03:32.615Z,1.20
2023-03-05T09:05:32.579Z,1.20
2023-03-05T09:07:32.758Z,1.20
2023-03-05T09:09:32.611Z,1.20
2023-03-05T09:11:33.719Z,1.20
2023-03-05T09:13:32.568Z,1.20
2023-03-05T09:15:32.517Z,1.20
2023-03-05T09:17:32.599Z,1.20
2023-03-05T09:19:32.505Z,1.30
2023-03-05T09:21:32.608Z,1.30
2023-03-05T09:23:32.630Z,1.30
2023-03-05T09:25:32.618Z,1.30
2023-03-05T09:27:32.564Z,1.30
2023-03-05T09:29:32.514Z,1.30
2023-03-05T09:31:32.622Z,1.30
2023-03-05T09:33:32.616Z,1.30
2023-03-05T09:35:32.660Z,1.30
2023-03-05T09:37:32.544Z,1.30
2023-03-05T09:39:32.716Z,1.30
2023-03-05T09:41:32.639Z,1.20
2023-03-05T09:43:32.590Z,1.20
2023-03-05T09:45:32.592Z,1.20
2023-03-05T09:47:32.581Z,1.30
2023-03-05T09:49:32.601Z,1.30
2023-03-05T09:51:32.622Z,1.30
2023-03-05T09:53:32.627Z,1.30
2023-03-05T09:55:32.708Z,1.30
2023-03-05T09:57:32.637Z,1.40
2023-03-05T09:59:32.596Z,1.40
2023-03-05T10:01:32.582Z,1.50
2023-03-05T10:03:32.630Z,1.40
2023-03-05T10:05:32.576Z,1.40
2023-03-05T10:07:32.586Z,1.40
2023-03-05T10:09:32.704Z,1.50
2023-03-05T10:11:32.638Z,1.50
2023-03-05T10:13:32.581Z,1.50
2023-03-05T10:15:32.656Z,1.50
2023-03-05T10:17:32.594Z,1.50
2023-03-05T10:19:32.614Z,1.50
2023-03-05T10:21:32.758Z,1.60
2023-03-05T10:23:32.636Z,1.60
2023-03-05T10:25:32.530Z,1.60
2023-03-05T10:27:32.684Z,1.60
2023-03-05T10:29:32.593Z,1.70
2023-03-05T10:32:02.706Z,1.50
2023-03-05T10:34:02.605Z,1.40
2023-03-05T10:36:02.637Z,1.40
2023-03-05T10:38:02.644Z,1.50
2023-03-05T10:40:02.610Z,1.50
2023-03-05T10:42:02.712Z,1.50
2023-03-05T10:44:02.790Z,1.50
2023-03-05T10:46:02.725Z,1.50
2023-03-05T10:48:02.609Z,1.50
2023-03-05T10:50:02.616Z,1.50
2023-03-05T10:52:02.649Z,1.60
2023-03-05T10:54:02.644Z,1.60
2023-03-05T10:56:02.685Z,1.60
2023-03-05T10:58:02.802Z,1.60
2023-03-05T11:00:02.826Z,1.60
2023-03-05T11:02:02.658Z,1.60
2023-03-05T11:04:02.674Z,1.60
2023-03-05T11:06:02.731Z,1.60
2023-03-05T11:08:02.638Z,1.60
2023-03-05T11:10:02.694Z,1.60
2023-03-05T11:12:02.609Z,1.60
2023-03-05T11:14:02.604Z,1.60
2023-03-05T11:16:02.812Z,1.50
2023-03-05T11:18:02.633Z,1.50
2023-03-05T11:20:02.676Z,1.40
2023-03-05T11:22:02.653Z,1.50
2023-03-05T11:24:02.668Z,1.50
2023-03-05T11:26:02.628Z,1.50
2023-03-05T11:28:02.593Z,1.50
2023-03-05T11:30:02.748Z,1.50
2023-03-05T11:32:02.660Z,1.50
2023-03-05T11:34:02.732Z,1.50
2023-03-05T11:36:02.668Z,1.50
2023-03-05T11:38:02.711Z,1.50
2023-03-05T11:40:02.695Z,1.50
2023-03-05T11:42:02.778Z,1.50
2023-03-05T11:44:02.593Z,1.50
2023-03-05T11:46:02.659Z,1.50
2023-03-05T11:48:02.673Z,1.50
2023-03-05T11:50:02.692Z,1.60
2023-03-05T11:52:02.742Z,1.60
2023-03-05T11:54:02.791Z,1.60
2023-03-05T11:56:02.754Z,1.60
2023-03-05T11:58:02.817Z,1.60
2023-03-05T12:00:03.541Z,1.70
2023-03-05T12:02:02.738Z,1.70
2023-03-05T12:04:02.795Z,1.60
2023-03-05T12:06:03.954Z,1.60
2023-03-05T12:10:02.796Z,1.60
2023-03-05T12:12:02.802Z,1.60
2023-03-05T12:14:02.737Z,1.60
2023-03-05T12:16:17.263Z,1.70
2023-03-05T12:18:17.220Z,1.70
2023-03-05T12:20:17.354Z,1.70
2023-03-05T12:22:17.450Z,1.70
2023-03-05T12:24:17.472Z,1.70
2023-03-05T12:26:17.265Z,1.70
2023-03-05T12:28:17.220Z,1.70
2023-03-05T12:30:17.206Z,1.70
2023-03-05T12:32:17.268Z,1.70
2023-03-05T12:34:17.348Z,1.70
2023-03-05T12:36:17.275Z,1.60
2023-03-05T12:38:26.061Z,1.70
2023-03-05T12:40:17.607Z,1.60
2023-03-05T12:42:17.298Z,1.60
2023-03-05T12:44:17.243Z,1.60
2023-03-05T12:46:17.439Z,1.60
2023-03-05T12:48:17.284Z,1.60
2023-03-05T12:50:17.276Z,1.60
2023-03-05T12:52:17.274Z,1.60
2023-03-05T12:54:19.056Z,1.60
2023-03-05T12:56:17.344Z,1.60
2023-03-05T12:58:17.300Z,1.80
2023-03-05T13:00:17.460Z,1.90
2023-03-05T13:02:17.212Z,1.90
2023-03-05T13:04:17.277Z,1.90
2023-03-05T13:06:17.249Z,2.10
2023-03-05T13:08:17.296Z,2.00
2023-03-05T13:10:17.280Z,2.00
2023-03-05T13:12:17.333Z,1.90
2023-03-05T13:14:47.199Z,2.00
2023-03-05T13:16:47.242Z,1.90
2023-03-05T13:18:47.232Z,1.90
2023-03-05T13:20:47.251Z,1.90
2023-03-05T13:22:47.275Z,1.90
2023-03-05T13:24:47.316Z,1.90
2023-03-05T13:26:47.331Z,1.80
2023-03-05T13:28:47.294Z,1.80
2023-03-05T13:30:47.240Z,1.80
2023-03-05T13:32:47.238Z,1.80
2023-03-05T13:34:48.065Z,1.90
2023-03-05T13:36:47.297Z,2.00
2023-03-05T13:38:47.301Z,2.00
2023-03-05T13:40:47.346Z,2.10
2023-03-05T13:42:47.295Z,2.30
2023-03-05T13:44:47.241Z,2.20
2023-03-05T13:46:47.273Z,2.30
2023-03-05T13:48:47.272Z,2.30
2023-03-05T13:50:47.311Z,2.30
2023-03-05T13:52:47.291Z,2.30
2023-03-05T13:54:47.339Z,2.30
2023-03-05T13:56:47.229Z,2.20
2023-03-05T13:58:47.345Z,2.20
2023-03-05T14:00:47.276Z,2.20
2023-03-05T14:02:47.248Z,2.20
2023-03-05T14:04:47.265Z,2.20
2023-03-05T14:06:47.333Z,2.20
2023-03-05T14:08:47.295Z,2.20
2023-03-05T14:10:47.305Z,2.20
2023-03-05T14:12:47.363Z,2.20
2023-03-05T14:14:47.225Z,2.10
2023-03-05T14:16:47.294Z,2.10
2023-03-05T14:18:47.285Z,2.10
2023-03-05T14:20:47.300Z,2.10
2023-03-05T14:22:47.335Z,2.10
2023-03-05T14:24:47.312Z,2.10
2023-03-05T14:26:47.378Z,2.10
2023-03-05T14:28:47.336Z,2.10
2023-03-05T14:30:47.298Z,2.00
2023-03-05T14:32:47.284Z,2.00
2023-03-05T14:34:47.310Z,2.00
2023-03-05T14:36:47.305Z,2.00
2023-03-05T14:38:47.326Z,2.10
2023-03-05T14:40:47.319Z,2.10
2023-03-05T14:42:47.252Z,2.00
2023-03-05T14:44:47.351Z,2.00
2023-03-05T14:46:47.281Z,2.00
2023-03-05T14:48:47.456Z,2.00
2023-03-05T14:50:47.300Z,2.00
2023-03-05T14:52:47.309Z,1.90
2023-03-05T14:54:47.318Z,1.90
2023-03-05T14:56:47.336Z,1.90
2023-03-05T14:58:47.285Z,1.90
2023-03-05T15:00:47.874Z,1.90
2023-03-05T15:02:48.387Z,1.80
2023-03-05T15:05:17.341Z,1.90
2023-03-05T15:07:17.333Z,1.90
2023-03-05T15:09:17.352Z,1.90
2023-03-05T15:11:17.356Z,1.90
2023-03-05T15:13:17.327Z,1.90
2023-03-05T15:15:17.283Z,1.90
2023-03-05T15:17:17.300Z,1.90
2023-03-05T15:19:17.423Z,1.90
2023-03-05T15:21:17.369Z,1.90
2023-03-05T15:23:17.461Z,1.90
2023-03-05T15:25:17.361Z,1.90
2023-03-05T15:27:17.347Z,1.90
2023-03-05T15:29:17.340Z,1.80
2023-03-05T15:31:17.361Z,1.80
2023-03-05T15:33:17.374Z,1.70
2023-03-05T15:35:17.327Z,1.70
2023-03-05T15:37:17.328Z,1.70
2023-03-05T15:39:17.349Z,1.70
2023-03-05T15:41:17.358Z,1.70
2023-03-05T15:43:17.400Z,1.70
2023-03-05T15:45:17.507Z,1.70
2023-03-05T15:47:17.308Z,1.60
2023-03-05T15:49:17.385Z,1.60
2023-03-05T15:51:17.545Z,1.60
2023-03-05T15:53:17.382Z,1.50
2023-03-05T15:55:17.389Z,1.50
2023-03-05T15:57:17.388Z,1.50
2023-03-05T15:59:17.295Z,1.50
2023-03-05T16:01:17.370Z,1.50
2023-03-05T16:03:17.506Z,1.50
2023-03-05T16:05:17.370Z,1.50
2023-03-05T16:07:17.340Z,1.40
2023-03-05T16:09:17.447Z,1.40
2023-03-05T16:11:17.264Z,1.40
2023-03-05T16:13:18.681Z,1.40
2023-03-05T16:15:17.314Z,1.30
2023-03-05T16:17:17.332Z,1.30
2023-03-05T16:19:17.388Z,1.30
2023-03-05T16:21:17.433Z,1.30
2023-03-05T16:23:17.370Z,1.20
2023-03-05T16:25:17.382Z,1.20
2023-03-05T16:27:17.396Z,1.20
2023-03-05T16:29:17.479Z,1.20
2023-03-05T16:31:17.431Z,1.20
2023-03-05T16:33:17.338Z,1.20
2023-03-05T16:35:17.391Z,1.20
2023-03-05T16:37:17.403Z,1.20
2023-03-05T16:39:17.447Z,1.20
2023-03-05T16:41:17.467Z,1.20
2023-03-05T16:43:17.450Z,1.20
2023-03-05T16:45:17.312Z,1.20
2023-03-05T16:47:19.405Z,1.20
2023-03-05T16:49:17.365Z,1.10
2023-03-05T16:51:19.932Z,1.10
2023-03-05T16:53:17.393Z,1.10
2023-03-05T16:55:47.380Z,1.10
2023-03-05T16:57:47.344Z,1.10
2023-03-05T16:59:47.336Z,1.10
2023-03-05T17:01:47.366Z,1.10
2023-03-05T17:03:47.416Z,1.10
2023-03-05T17:05:47.389Z,1.10
2023-03-05T17:07:47.459Z,1.10
2023-03-05T17:09:47.477Z,1.10
2023-03-05T17:11:47.315Z,1.10
2023-03-05T17:13:49.137Z,1.10
2023-03-05T17:15:47.369Z,1.10
2023-03-05T17:17:47.373Z,1.10
2023-03-05T17:19:47.354Z,1.10
2023-03-05T17:21:47.446Z,1.10
2023-03-05T17:23:47.406Z,1.00
2023-03-05T17:25:47.424Z,1.00
2023-03-05T17:27:47.500Z,1.00
2023-03-05T17:29:47.323Z,1.00
2023-03-05T17:31:47.647Z,1.00
2023-03-05T17:33:47.488Z,1.00
2023-03-05T17:35:47.456Z,1.00
2023-03-05T17:37:47.419Z,0.90
2023-03-05T17:39:47.435Z,0.90
2023-03-05T17:41:47.412Z,0.90
2023-03-05T17:43:47.386Z,0.90
2023-03-05T17:45:47.405Z,0.90
2023-03-05T17:47:47.425Z,0.90
2023-03-05T17:49:47.489Z,0.90
2023-03-05T17:51:47.464Z,0.80
2023-03-05T17:53:47.416Z,0.80
2023-03-05T17:55:47.641Z,0.80
2023-03-05T17:57:47.473Z,0.80
2023-03-05T17:59:47.365Z,0.80
2023-03-05T18:01:48.391Z,0.80
2023-03-05T18:03:47.415Z,0.80
2023-03-05T18:05:47.415Z,0.70
2023-03-05T18:07:47.710Z,0.70
2023-03-05T18:09:47.523Z,0.70
2023-03-05T18:11:47.441Z,0.70
2023-03-05T18:13:47.376Z,0.70
2023-03-05T18:15:47.469Z,0.70
2023-03-05T18:17:47.397Z,0.70
2023-03-05T18:19:47.493Z,0.70
2023-03-05T18:21:47.566Z,0.70
2023-03-05T18:23:47.466Z,0.70
2023-03-05T18:25:49.390Z,0.70
2023-03-05T18:27:47.507Z,0.70
2023-03-05T18:29:47.476Z,0.70
2023-03-05T18:31:47.534Z,0.70
2023-03-05T18:33:47.509Z,0.70
2023-03-05T18:35:47.442Z,0.70
2023-03-05T18:37:47.432Z,0.70
2023-03-05T18:39:47.347Z,0.70
2023-03-05T18:41:47.536Z,0.70
2023-03-05T18:44:19.128Z,0.70
2023-03-05T18:46:17.495Z,0.70
2023-03-05T18:48:17.917Z,0.70
2023-03-05T18:50:18.001Z,0.70
2023-03-05T18:52:17.423Z,0.70
2023-03-05T18:54:17.557Z,0.70
2023-03-05T18:56:17.366Z,0.70
2023-03-05T18:58:17.534Z,0.70
2023-03-05T19:00:17.489Z,0.70
2023-03-05T19:02:17.409Z,0.70
2023-03-05T19:04:17.547Z,0.70
2023-03-05T19:06:17.484Z,0.70
2023-03-05T19:08:17.515Z,0.70
2023-03-05T19:10:18.415Z,0.70
2023-03-05T19:12:17.548Z,0.70
2023-03-05T19:14:17.464Z,0.70
2023-03-05T19:16:17.418Z,0.60
2023-03-05T19:18:17.421Z,0.60
2023-03-05T19:20:17.542Z,0.60
2023-03-05T19:22:27.433Z,0.60
2023-03-05T19:24:27.391Z,0.60
2023-03-05T19:26:27.433Z,0.60
2023-03-05T19:28:27.608Z,0.60
2023-03-05T19:30:27.494Z,0.60
2023-03-05T19:32:27.519Z,0.60
2023-03-05T19:34:27.420Z,0.60
2023-03-05T19:36:27.459Z,0.60
2023-03-05T19:38:27.400Z,0.60
2023-03-05T19:40:27.428Z,0.60
2023-03-05T19:42:27.513Z,0.60
2023-03-05T19:44:27.471Z,0.60
2023-03-05T19:46:27.532Z,0.60
2023-03-05T19:48:27.493Z,0.60
2023-03-05T19:50:27.365Z,0.60
2023-03-05T19:52:27.412Z,0.60
2023-03-05T19:54:27.432Z,0.60
2023-03-05T19:56:27.460Z,0.60
2023-03-05T19:58:27.514Z,0.60
2023-03-05T20:00:27.494Z,0.70
2023-03-05T20:02:27.375Z,0.70
2023-03-05T20:04:27.498Z,0.70
2023-03-05T20:06:27.498Z,0.60
2023-03-05T20:08:27.467Z,0.60
2023-03-05T20:10:27.444Z,0.60
2023-03-05T20:12:27.522Z,0.60
2023-03-05T20:14:27.480Z,0.60
2023-03-05T20:16:27.592Z,0.60
2023-03-05T20:18:27.400Z,0.60
2023-03-05T20:20:27.371Z,0.60
2023-03-05T20:22:27.438Z,0.60
2023-03-05T20:24:27.464Z,0.60
2023-03-05T20:26:27.473Z,0.60
2023-03-05T20:28:27.523Z,0.60
2023-03-05T20:30:27.493Z,0.60
2023-03-05T20:32:27.547Z,0.60
2023-03-05T20:34:27.439Z,0.60
2023-03-05T20:36:27.454Z,0.60
2023-03-05T20:38:27.534Z,0.60
2023-03-05T20:40:27.414Z,0.70
2023-03-05T20:42:27.483Z,0.70
2023-03-05T20:44:27.553Z,0.60
2023-03-05T20:46:27.548Z,0.60
2023-03-05T20:48:27.530Z,0.60
2023-03-05T20:50:27.437Z,0.60
2023-03-05T20:52:27.418Z,0.60
2023-03-05T20:54:27.700Z,0.60
2023-03-05T20:56:27.488Z,0.60
2023-03-05T20:58:27.489Z,0.60
2023-03-05T21:00:27.444Z,0.60
2023-03-05T21:02:27.499Z,0.60
2023-03-05T21:04:27.464Z,0.60
2023-03-05T21:06:57.439Z,0.60
2023-03-05T21:08:57.464Z,0.60
2023-03-05T21:10:57.474Z,0.60
2023-03-05T21:12:58.990Z,0.60
2023-03-05T21:14:57.539Z,0.60
2023-03-05T21:16:57.531Z,0.60
2023-03-05T21:18:57.540Z,0.60
2023-03-05T21:20:57.390Z,0.60
2023-03-05T21:22:57.461Z,0.60
2023-03-05T21:24:57.522Z,0.60
2023-03-05T21:26:57.481Z,0.60
2023-03-05T21:28:57.425Z,0.60
2023-03-05T21:30:57.541Z,0.60
2023-03-05T21:32:57.436Z,0.60
2023-03-05T21:34:59.401Z,0.50
2023-03-05T21:36:57.459Z,0.50
2023-03-05T21:38:57.485Z,0.50
2023-03-05T21:40:57.492Z,0.50
2023-03-05T21:42:57.460Z,0.40
2023-03-05T21:44:57.510Z,0.40
2023-03-05T21:46:57.456Z,0.40
2023-03-05T21:48:57.440Z,0.40
2023-03-05T21:50:57.468Z,0.40
2023-03-05T21:52:57.471Z,0.30
2023-03-05T21:54:57.463Z,0.30
2023-03-05T21:56:57.494Z,0.30
2023-03-05T21:58:57.527Z,0.20
2023-03-05T22:00:57.481Z,0.20
2023-03-05T22:02:58.502Z,0.20
2023-03-05T22:04:57.432Z,0.20
2023-03-05T22:06:57.475Z,0.20
2023-03-05T22:08:57.485Z,0.10
2023-03-05T22:10:57.514Z,0.10
2023-03-05T22:12:57.540Z,0.00
2023-03-05T22:14:57.545Z,0.00
2023-03-05T22:16:57.493Z,0.00
2023-03-05T22:18:57.457Z,0.00
2023-03-05T22:20:57.424Z,0.00
2023-03-05T22:22:57.434Z,0.00
2023-03-05T22:24:57.489Z,0.00
2023-03-05T22:26:57.516Z,0.00
2023-03-05T22:28:57.452Z,0.00
2023-03-05T22:30:57.460Z,0.10
2023-03-05T22:32:57.433Z,0.10
2023-03-05T22:34:57.455Z,0.10
2023-03-05T22:36:57.455Z,0.10
2023-03-05T22:38:57.485Z,0.10
2023-03-05T22:40:57.469Z,0.10
2023-03-05T22:42:57.537Z,0.20
2023-03-05T22:44:57.592Z,0.20
2023-03-05T22:46:57.433Z,0.20
2023-03-05T22:48:57.438Z,0.20
2023-03-05T22:50:57.476Z,0.20
2023-03-05T22:53:27.494Z,0.10
2023-03-05T22:55:27.512Z,0.20
2023-03-05T22:57:27.535Z,0.20
2023-03-05T22:59:27.442Z,0.20
2023-03-05T23:01:27.629Z,0.20
2023-03-05T23:03:27.693Z,0.20
2023-03-05T23:05:27.511Z,0.20
2023-03-05T23:07:27.508Z,0.20
2023-03-05T23:09:27.474Z,0.10
2023-03-05T23:11:27.518Z,0.10
2023-03-05T23:13:27.552Z,0.20
2023-03-05T23:15:27.634Z,0.20
2023-03-05T23:17:28.467Z,0.10
2023-03-05T23:19:27.513Z,0.20
2023-03-05T23:21:27.456Z,0.20
2023-03-05T23:23:27.535Z,0.10
2023-03-05T23:25:27.551Z,0.10
2023-03-05T23:27:27.553Z,0.10
2023-03-05T23:29:27.606Z,0.10
2023-03-05T23:31:27.694Z,0.10
2023-03-05T23:33:27.482Z,0.10
2023-03-05T23:35:27.542Z,0.10
2023-03-05T23:37:27.444Z,0.10
2023-03-05T23:39:27.475Z,0.10
2023-03-05T23:41:27.469Z,0.20
2023-03-05T23:43:27.562Z,0.10
2023-03-05T23:45:27.490Z,0.10
2023-03-05T23:47:27.443Z,0.20
2023-03-05T23:49:27.492Z,0.20
2023-03-05T23:51:27.469Z,0.20
2023-03-05T23:53:27.515Z,0.20
2023-03-05T23:55:27.465Z,0.20
2023-03-05T23:57:27.457Z,0.20
2023-03-05T23:59:27.583Z,0.20
